Time;durP1;ratioP1;P1;durP2;ratioP2;P2;SDS_P1;SDS_P2;PMS_P1;PMS_P2;Temp;Humidity;BMP_temperature;BMP_pressure;BME280_temperature;BME280_humidity;BME280_pressure;Samples;Min_cycle;Max_cycle;Signal;HPM_P1;HPM_P2
2024/02/11 00:00:04;;;;;;;4.60;2.93;;;21.30;55.40;;;;;;5053720;28;20416;-69
2024/02/11 00:02:34;;;;;;;4.27;3.37;;;21.30;55.40;;;;;;5053696;28;20528;-69
2024/02/11 00:05:00;;;;;;;5.30;3.20;;;21.30;55.30;;;;;;5054281;28;20413;-69
2024/02/11 00:07:25;;;;;;;4.70;3.20;;;21.30;55.30;;;;;;5054203;28;20413;-69
2024/02/11 00:09:51;;;;;;;4.20;3.23;;;21.30;55.30;;;;;;5054101;28;20163;-70
2024/02/11 00:12:16;;;;;;;3.80;2.90;;;21.30;55.40;;;;;;5054055;28;20205;-69
2024/02/11 00:14:42;;;;;;;4.17;2.80;;;21.30;55.30;;;;;;5052702;28;20202;-69
2024/02/11 00:17:08;;;;;;;3.57;2.70;;;21.30;55.30;;;;;;5053957;28;20228;-69
2024/02/11 00:19:34;;;;;;;5.23;2.87;;;21.30;55.30;;;;;;5053062;28;20195;-70
2024/02/11 00:22:01;;;;;;;4.63;3.13;;;21.30;55.30;;;;;;5053491;28;20203;-69
2024/02/11 00:24:29;;;;;;;3.67;3.27;;;21.30;55.30;;;;;;5054469;28;20428;-69
2024/02/11 00:26:56;;;;;;;5.50;3.87;;;21.30;55.30;;;;;;5054681;28;20413;-69
2024/02/11 00:29:21;;;;;;;4.30;3.10;;;21.30;55.30;;;;;;5053871;28;20928;-69
2024/02/11 00:31:47;;;;;;;3.47;2.63;;;21.30;55.30;;;;;;5053686;28;20444;-68
2024/02/11 00:34:14;;;;;;;2.93;2.60;;;21.30;55.30;;;;;;5053708;28;20654;-69
2024/02/11 00:36:40;;;;;;;5.10;3.00;;;21.30;55.30;;;;;;5053852;28;20167;-68
2024/02/11 00:39:06;;;;;;;3.87;2.73;;;21.30;55.30;;;;;;5053746;28;20405;-69
2024/02/11 00:41:32;;;;;;;6.17;4.60;;;21.30;55.30;;;;;;5053451;28;20834;-69
2024/02/11 00:43:58;;;;;;;3.87;2.90;;;21.30;55.30;;;;;;5053516;28;20166;-69
2024/02/11 00:46:23;;;;;;;4.20;2.70;;;21.30;55.30;;;;;;5053508;28;20171;-69
2024/02/11 00:48:49;;;;;;;3.53;2.53;;;21.30;55.30;;;;;;5052154;28;20422;-69
2024/02/11 00:51:15;;;;;;;4.70;3.00;;;21.30;55.30;;;;;;5053485;28;20215;-69
2024/02/11 00:53:40;;;;;;;3.27;2.47;;;21.30;55.30;;;;;;5052135;28;20187;-69
2024/02/11 00:56:08;;;;;;;3.50;2.93;;;21.30;55.30;;;;;;5053225;28;20167;-70
2024/02/11 00:58:33;;;;;;;4.60;2.90;;;21.30;55.30;;;;;;5053477;28;20167;-69
2024/02/11 01:01:04;;;;;;;3.70;2.80;;;21.30;55.30;;;;;;5053335;28;20519;-68
2024/02/11 01:03:30;;;;;;;3.87;2.77;;;21.30;55.30;;;;;;5053328;28;20155;-69
2024/02/11 01:05:56;;;;;;;4.07;2.90;;;21.30;55.30;;;;;;5053418;28;20414;-69
2024/02/11 01:08:22;;;;;;;3.57;3.00;;;21.30;55.30;;;;;;5051698;28;20206;-69
2024/02/11 01:10:48;;;;;;;3.30;2.77;;;21.20;55.30;;;;;;5053066;28;20194;-69
2024/02/11 01:13:15;;;;;;;6.40;3.80;;;21.30;55.30;;;;;;5053005;28;20452;-69
2024/02/11 01:15:41;;;;;;;3.70;2.97;;;21.20;55.20;;;;;;5052917;28;20186;-69
2024/02/11 01:18:07;;;;;;;7.00;3.17;;;21.20;55.20;;;;;;5053485;28;20410;-69
2024/02/11 01:20:32;;;;;;;5.00;2.57;;;21.20;55.20;;;;;;5052863;28;20187;-69
2024/02/11 01:22:58;;;;;;;3.80;2.63;;;21.30;55.30;;;;;;5053176;28;20375;-69
2024/02/11 01:25:24;;;;;;;3.90;2.80;;;21.20;55.30;;;;;;5053104;28;20178;-68
2024/02/11 01:27:50;;;;;;;3.40;2.63;;;21.20;55.30;;;;;;5052858;28;20163;-69
2024/02/11 01:30:17;;;;;;;3.53;2.53;;;21.20;55.30;;;;;;5052935;28;20425;-69
2024/02/11 01:32:43;;;;;;;4.90;2.47;;;21.20;55.20;;;;;;5052653;28;20733;-69
2024/02/11 01:35:09;;;;;;;4.03;2.60;;;21.20;55.30;;;;;;5053002;28;20508;-67
2024/02/11 01:37:40;;;;;;;4.10;3.20;;;21.20;55.20;;;;;;5053251;28;20428;-69
2024/02/11 01:40:07;;;;;;;3.80;3.40;;;21.20;55.30;;;;;;5053131;28;20164;-69
2024/02/11 01:42:34;;;;;;;2.90;2.27;;;21.20;55.30;;;;;;5052897;28;20487;-70
2024/02/11 01:45:00;;;;;;;4.03;2.63;;;21.20;55.20;;;;;;5052741;28;20405;-69
2024/02/11 01:47:26;;;;;;;3.60;2.63;;;21.20;55.30;;;;;;5053112;28;20531;-68
2024/02/11 01:49:52;;;;;;;4.13;3.30;;;21.20;55.30;;;;;;5052831;28;20701;-68
2024/02/11 01:52:18;;;;;;;2.60;2.40;;;21.20;55.30;;;;;;5052528;28;20740;-68
2024/02/11 01:54:44;;;;;;;3.53;2.40;;;21.20;55.30;;;;;;5052636;28;20483;-69
2024/02/11 01:57:10;;;;;;;3.50;2.70;;;21.20;55.30;;;;;;5052868;28;20413;-69
2024/02/11 01:59:38;;;;;;;3.80;2.60;;;21.20;55.30;;;;;;5052141;28;20175;-69
2024/02/11 02:02:09;;;;;;;4.43;2.37;;;21.20;55.30;;;;;;5052613;28;20206;-69
2024/02/11 02:04:36;;;;;;;5.37;3.37;;;21.20;55.30;;;;;;5052656;28;20398;-67
2024/02/11 02:07:03;;;;;;;3.40;2.57;;;21.20;55.30;;;;;;5052485;28;20408;-69
2024/02/11 02:09:31;;;;;;;3.20;2.80;;;21.20;55.20;;;;;;5052303;28;20979;-69
2024/02/11 02:11:58;;;;;;;3.50;2.70;;;21.20;55.20;;;;;;5052233;28;20456;-69
2024/02/11 02:14:23;;;;;;;3.07;2.33;;;21.20;55.20;;;;;;5052330;28;20409;-69
2024/02/11 02:16:49;;;;;;;3.77;2.80;;;21.20;55.20;;;;;;5052255;28;20498;-69
2024/02/11 02:19:15;;;;;;;4.00;2.40;;;21.20;55.20;;;;;;5052299;28;20191;-69
2024/02/11 02:21:51;;;;;;;2.83;2.50;;;21.20;55.20;;;;;;5052032;28;20494;-68
2024/02/11 02:24:17;;;;;;;4.60;3.40;;;21.20;55.20;;;;;;5052026;28;20163;-69
2024/02/11 02:26:43;;;;;;;2.53;2.10;;;21.20;55.20;;;;;;5052527;28;20535;-69
2024/02/11 02:29:09;;;;;;;2.43;2.23;;;21.20;55.30;;;;;;5052243;28;20175;-68
2024/02/11 02:31:34;;;;;;;2.57;2.23;;;21.20;55.20;;;;;;5052145;28;20198;-70
2024/02/11 02:34:00;;;;;;;3.27;2.53;;;21.20;55.30;;;;;;5052273;28;20436;-69
2024/02/11 02:36:27;;;;;;;3.63;2.37;;;21.20;55.20;;;;;;5052092;28;20175;-69
2024/02/11 02:38:53;;;;;;;3.73;2.60;;;21.20;55.20;;;;;;5052265;28;20425;-69
2024/02/11 02:41:18;;;;;;;3.27;2.70;;;21.20;55.20;;;;;;5051790;28;20461;-69
2024/02/11 02:43:46;;;;;;;3.20;2.30;;;21.20;55.80;;;;;;5051914;28;20175;-69
2024/02/11 02:46:12;;;;;;;3.00;2.07;;;21.20;55.20;;;;;;5051855;28;20171;-69
2024/02/11 02:48:38;;;;;;;3.03;2.67;;;21.20;55.20;;;;;;5052186;28;20467;-69
2024/02/11 02:51:04;;;;;;;3.67;2.90;;;21.20;55.20;;;;;;5051582;28;20421;-69
2024/02/11 02:53:30;;;;;;;3.43;2.70;;;21.20;55.30;;;;;;5051854;28;20179;-70
2024/02/11 02:55:56;;;;;;;4.07;2.20;;;21.20;55.30;;;;;;5051791;28;20244;-69
2024/02/11 02:58:23;;;;;;;2.37;2.03;;;21.20;55.30;;;;;;5052024;28;20166;-69
2024/02/11 03:00:49;;;;;;;3.07;2.23;;;21.20;55.30;;;;;;5051313;28;20441;-70
2024/02/11 03:03:14;;;;;;;4.13;2.77;;;21.20;55.30;;;;;;5051480;28;20413;-69
2024/02/11 03:05:41;;;;;;;3.40;2.60;;;21.20;55.20;;;;;;5051699;28;20405;-69
2024/02/11 03:08:07;;;;;;;6.10;3.03;;;21.20;55.30;;;;;;5051464;28;20164;-70
2024/02/11 03:10:33;;;;;;;3.37;2.50;;;21.20;55.30;;;;;;5051585;28;20765;-69
2024/02/11 03:12:59;;;;;;;4.60;3.00;;;21.20;55.30;;;;;;5051447;28;20460;-69
2024/02/11 03:15:26;;;;;;;3.87;2.63;;;21.20;55.30;;;;;;5051772;28;20179;-69
2024/02/11 03:17:52;;;;;;;3.33;2.70;;;21.20;55.20;;;;;;5051736;28;20920;-69
2024/02/11 03:20:17;;;;;;;2.53;2.13;;;21.10;55.20;;;;;;5051527;28;20528;-69
2024/02/11 03:22:43;;;;;;;3.27;2.40;;;21.20;55.20;;;;;;5051236;28;20218;-69
2024/02/11 03:25:09;;;;;;;3.53;2.57;;;21.10;55.20;;;;;;5051379;28;20548;-69
2024/02/11 03:27:38;;;;;;;4.83;2.70;;;21.10;55.20;;;;;;5051250;28;20406;-69
2024/02/11 03:30:06;;;;;;;4.23;2.87;;;21.10;55.20;;;;;;5051689;28;20433;-70
2024/02/11 03:32:32;;;;;;;3.83;2.90;;;21.10;55.20;;;;;;5051565;28;20927;-69
2024/02/11 03:34:57;;;;;;;2.80;2.20;;;21.10;55.20;;;;;;5052507;28;20416;-69
2024/02/11 03:37:23;;;;;;;2.60;2.40;;;21.10;55.20;;;;;;5055353;28;20175;-68
2024/02/11 03:39:49;;;;;;;3.53;2.50;;;21.10;55.20;;;;;;5055258;28;20183;-70
2024/02/11 03:42:15;;;;;;;3.77;2.23;;;21.10;55.20;;;;;;5054773;28;20260;-68
2024/02/11 03:44:40;;;;;;;5.30;2.80;;;21.10;55.20;;;;;;5055470;28;20426;-70
2024/02/11 03:47:06;;;;;;;4.00;2.57;;;21.10;55.20;;;;;;5054997;28;20178;-69
2024/02/11 03:49:32;;;;;;;2.37;2.00;;;21.10;55.20;;;;;;5055081;28;20167;-69
2024/02/11 03:51:57;;;;;;;2.93;2.30;;;21.10;55.20;;;;;;5054812;28;20199;-69
2024/02/11 03:54:23;;;;;;;3.07;2.57;;;21.10;55.20;;;;;;5054925;28;20185;-70
2024/02/11 03:56:49;;;;;;;3.30;2.10;;;21.10;55.20;;;;;;5054756;28;20241;-70
2024/02/11 03:59:15;;;;;;;4.27;2.50;;;21.10;55.20;;;;;;5054680;28;20474;-69
2024/02/11 04:01:41;;;;;;;2.97;2.53;;;21.10;55.20;;;;;;5053455;28;20256;-69
2024/02/11 04:04:06;;;;;;;2.90;2.60;;;21.10;55.20;;;;;;5054913;28;20642;-69
2024/02/11 04:06:34;;;;;;;3.00;2.40;;;21.10;55.20;;;;;;5054680;28;20831;-69
2024/02/11 04:09:03;;;;;;;2.87;2.30;;;21.10;55.20;;;;;;5054653;28;20547;-69
2024/02/11 04:11:29;;;;;;;2.73;2.20;;;21.10;55.20;;;;;;5054347;28;20550;-69
2024/02/11 04:13:55;;;;;;;2.90;2.30;;;21.10;55.20;;;;;;5054620;28;20433;-69
2024/02/11 04:16:22;;;;;;;2.73;2.27;;;21.10;55.20;;;;;;5052959;28;20421;-68
2024/02/11 04:18:49;;;;;;;2.50;2.20;;;21.10;55.20;;;;;;5054274;28;20445;-68
2024/02/11 04:21:15;;;;;;;3.10;2.30;;;21.10;55.20;;;;;;5054239;28;20457;-68
2024/02/11 04:23:41;;;;;;;3.90;2.97;;;21.10;55.20;;;;;;5054477;28;20410;-69
2024/02/11 04:26:08;;;;;;;3.80;2.17;;;21.10;55.20;;;;;;5052878;28;20416;-69
2024/02/11 04:28:37;;;;;;;3.83;2.73;;;21.10;55.20;;;;;;5054388;28;20441;-69
2024/02/11 04:31:09;;;;;;;3.50;2.50;;;21.10;55.10;;;;;;5054321;28;21003;-68
2024/02/11 04:33:38;;;;;;;3.90;2.17;;;21.10;55.20;;;;;;5054223;28;20394;-68
2024/02/11 04:36:06;;;;;;;2.73;2.00;;;21.10;55.20;;;;;;5053829;28;20421;-68
2024/02/11 04:38:34;;;;;;;2.73;2.50;;;21.10;55.20;;;;;;5054308;28;20429;-68
2024/02/11 04:41:00;;;;;;;2.57;2.17;;;21.10;55.20;;;;;;5054003;28;20433;-69
2024/02/11 04:43:29;;;;;;;4.53;2.43;;;21.10;55.20;;;;;;5054241;28;20441;-69
2024/02/11 04:45:56;;;;;;;3.20;2.40;;;21.10;55.20;;;;;;5054072;28;20413;-69
2024/02/11 04:48:24;;;;;;;4.00;2.70;;;21.10;55.20;;;;;;5053309;28;20928;-69
2024/02/11 04:50:50;;;;;;;4.10;2.70;;;21.10;55.20;;;;;;5053913;28;20464;-69
2024/02/11 04:53:18;;;;;;;3.90;3.00;;;21.10;55.20;;;;;;5054351;28;20433;-68
2024/02/11 04:55:46;;;;;;;2.43;2.20;;;21.10;55.20;;;;;;5054122;28;20178;-69
2024/02/11 04:58:18;;;;;;;3.10;2.57;;;21.10;55.20;;;;;;5053578;28;20414;-68
2024/02/11 05:00:47;;;;;;;2.97;2.40;;;21.10;55.20;;;;;;5053682;28;20401;-69
2024/02/11 05:03:17;;;;;;;3.57;2.20;;;21.10;55.20;;;;;;5053250;28;20416;-68
2024/02/11 05:05:43;;;;;;;2.90;2.17;;;21.10;55.20;;;;;;5054040;28;20397;-68
2024/02/11 05:08:10;;;;;;;2.53;2.13;;;21.10;55.20;;;;;;5053451;28;20908;-69
2024/02/11 05:10:37;;;;;;;3.07;2.37;;;21.10;55.20;;;;;;5053840;28;20418;-69
2024/02/11 05:13:04;;;;;;;3.07;2.50;;;21.10;55.20;;;;;;5054362;28;20420;-69
2024/02/11 05:15:34;;;;;;;3.63;2.20;;;21.10;55.20;;;;;;5053542;28;20475;-68
2024/02/11 05:18:00;;;;;;;2.53;2.33;;;21.10;55.20;;;;;;5053130;28;20425;-68
2024/02/11 05:20:31;;;;;;;2.37;2.00;;;21.10;55.20;;;;;;5053138;28;20552;-68
2024/02/11 05:22:57;;;;;;;2.20;1.90;;;21.10;55.20;;;;;;5053406;28;20505;-69
2024/02/11 05:25:25;;;;;;;3.00;2.43;;;21.10;55.20;;;;;;5052700;28;20413;-67
2024/02/11 05:28:02;;;;;;;2.20;1.97;;;21.10;55.20;;;;;;5052332;28;20444;-70
2024/02/11 05:30:37;;;;;;;3.13;2.33;;;21.10;55.10;;;;;;5052553;28;20397;-70
2024/02/11 05:33:06;;;;;;;2.70;2.03;;;21.10;55.20;;;;;;5052690;28;20420;-69
2024/02/11 05:35:35;;;;;;;3.20;1.93;;;21.00;55.10;;;;;;5052727;28;20409;-70
2024/02/11 05:38:01;;;;;;;2.37;2.17;;;21.10;55.20;;;;;;5052627;28;20413;-69
2024/02/11 05:40:27;;;;;;;2.63;2.17;;;21.00;55.70;;;;;;5052419;28;20417;-69
2024/02/11 05:42:57;;;;;;;2.83;2.33;;;21.10;55.20;;;;;;5051964;28;20203;-69
2024/02/11 05:45:23;;;;;;;2.60;2.17;;;21.00;55.10;;;;;;5051674;28;20413;-67
2024/02/11 05:47:52;;;;;;;3.07;2.40;;;21.10;55.20;;;;;;5051739;28;20768;-69
2024/02/11 05:50:22;;;;;;;3.10;2.27;;;21.00;55.10;;;;;;5052095;28;20417;-69
2024/02/11 05:52:49;;;;;;;3.00;2.40;;;21.10;55.20;;;;;;5052377;28;20437;-70
2024/02/11 05:55:18;;;;;;;3.00;2.13;;;21.00;55.10;;;;;;5051277;28;20418;-69
2024/02/11 05:57:44;;;;;;;2.53;2.30;;;21.00;55.20;;;;;;5051711;28;20425;-69
2024/02/11 06:00:12;;;;;;;3.03;2.70;;;21.10;55.30;;;;;;5051549;28;20417;-70
2024/02/11 06:02:42;;;;;;;3.40;2.40;;;21.00;55.10;;;;;;5053019;28;21012;-71
2024/02/11 06:05:12;;;;;;;3.50;2.90;;;21.00;55.20;;;;;;5053017;28;20417;-70
2024/02/11 06:07:49;;;;;;;5.60;2.40;;;21.00;55.10;;;;;;5052786;28;20791;-71
2024/02/11 06:10:15;;;;;;;3.27;2.27;;;21.00;55.10;;;;;;5051266;28;20502;-71
2024/02/11 06:12:42;;;;;;;3.00;2.33;;;21.00;55.10;;;;;;5052325;28;20520;-70
2024/02/11 06:15:10;;;;;;;3.00;2.20;;;21.00;55.10;;;;;;5053310;28;20422;-70
2024/02/11 06:17:37;;;;;;;8.07;2.50;;;21.00;55.10;;;;;;5052850;28;20418;-70
2024/02/11 06:20:13;;;;;;;2.97;2.37;;;21.00;55.10;;;;;;5052567;28;20452;-70
2024/02/11 06:22:39;;;;;;;2.70;2.30;;;21.00;55.10;;;;;;5052611;28;20465;-70
2024/02/11 06:25:05;;;;;;;2.70;2.10;;;21.00;55.10;;;;;;5052732;28;20409;-71
2024/02/11 06:27:32;;;;;;;3.20;2.70;;;21.00;55.10;;;;;;5052549;28;20480;-70
2024/02/11 06:29:58;;;;;;;2.53;2.10;;;21.10;55.30;;;;;;5052883;28;20445;-70
2024/02/11 06:32:24;;;;;;;6.87;2.60;;;21.10;55.20;;;;;;5052734;28;20473;-70
2024/02/11 06:34:52;;;;;;;2.67;2.47;;;21.10;55.20;;;;;;5052551;28;20239;-71
2024/02/11 06:37:19;;;;;;;2.70;2.40;;;21.10;55.30;;;;;;5052435;28;20421;-70
2024/02/11 06:39:44;;;;;;;3.77;2.87;;;21.10;55.20;;;;;;5052479;28;20425;-69
2024/02/11 06:42:10;;;;;;;2.83;2.30;;;21.10;55.20;;;;;;5052665;28;21001;-70
2024/02/11 06:44:38;;;;;;;3.00;2.37;;;21.10;55.20;;;;;;5052628;28;20274;-69
2024/02/11 06:47:05;;;;;;;2.30;2.10;;;21.10;55.20;;;;;;5052722;28;20257;-71
2024/02/11 06:49:31;;;;;;;6.60;2.60;;;21.10;55.20;;;;;;5052723;28;20405;-70
2024/02/11 06:51:56;;;;;;;3.17;2.67;;;21.10;55.20;;;;;;5050815;28;20551;-70
2024/02/11 06:54:22;;;;;;;3.50;2.23;;;21.10;55.20;;;;;;5052445;28;20175;-70
2024/02/11 06:56:50;;;;;;;3.40;2.10;;;21.10;55.20;;;;;;5053150;28;20202;-71
2024/02/11 06:59:17;;;;;;;3.00;2.10;;;21.10;55.20;;;;;;5052395;28;20795;-70
2024/02/11 07:01:43;;;;;;;2.83;2.40;;;21.20;55.30;;;;;;5052541;28;20469;-70
2024/02/11 07:04:12;;;;;;;5.80;2.27;;;21.20;55.30;;;;;;5052483;28;20765;-70
2024/02/11 07:06:43;;;;;;;5.00;3.37;;;21.20;55.30;;;;;;5052413;28;20410;-70
2024/02/11 07:09:11;;;;;;;2.60;2.00;;;21.20;55.30;;;;;;5052319;28;20402;-71
2024/02/11 07:11:38;;;;;;;4.07;2.80;;;21.20;55.30;;;;;;5055626;28;20826;-70
2024/02/11 07:14:06;;;;;;;3.20;2.43;;;21.20;55.30;;;;;;5056326;28;20424;-71
2024/02/11 07:16:32;;;;;;;2.63;2.43;;;21.20;55.30;;;;;;5056748;28;20425;-71
2024/02/11 07:18:58;;;;;;;4.23;2.00;;;21.20;55.20;;;;;;5055699;28;20434;-70
2024/02/11 07:21:24;;;;;;;2.90;2.00;;;21.20;55.20;;;;;;5056401;28;20468;-70
2024/02/11 07:23:49;;;;;;;3.27;2.80;;;21.20;55.20;;;;;;5056209;28;20660;-70
2024/02/11 07:26:16;;;;;;;2.90;2.03;;;21.20;55.20;;;;;;5056470;28;20174;-70
2024/02/11 07:28:42;;;;;;;2.20;2.00;;;21.20;55.20;;;;;;5056019;28;20175;-71
2024/02/11 07:31:08;;;;;;;3.67;2.17;;;21.20;55.20;;;;;;5055906;28;20422;-71
2024/02/11 07:33:33;;;;;;;2.80;2.50;;;21.20;55.20;;;;;;5055437;28;20189;-71
2024/02/11 07:35:59;;;;;;;2.97;2.23;;;21.20;55.20;;;;;;5056134;28;20547;-70
2024/02/11 07:38:26;;;;;;;4.43;2.70;;;21.20;55.20;;;;;;5056229;28;20182;-70
2024/02/11 07:40:53;;;;;;;3.50;1.90;;;21.20;55.20;;;;;;5055478;28;20198;-70
2024/02/11 07:43:19;;;;;;;2.73;2.00;;;21.20;55.20;;;;;;5056195;28;20459;-70
2024/02/11 07:45:45;;;;;;;2.67;2.30;;;21.20;55.20;;;;;;5055748;28;20432;-68
2024/02/11 07:48:10;;;;;;;3.67;2.63;;;21.20;55.30;;;;;;5055723;28;20775;-70
2024/02/11 07:50:36;;;;;;;2.33;1.93;;;21.20;55.20;;;;;;5055493;28;20301;-69
2024/02/11 07:53:05;;;;;;;4.50;2.47;;;21.20;55.20;;;;;;5055371;28;20206;-70
2024/02/11 07:55:31;;;;;;;2.60;2.00;;;21.20;55.30;;;;;;5054189;28;20939;-70
2024/02/11 07:58:03;;;;;;;2.20;1.90;;;21.20;55.20;;;;;;5054866;28;20492;-68
2024/02/11 08:00:31;;;;;;;2.37;2.17;;;21.20;55.30;;;;;;5053487;28;20190;-70
2024/02/11 08:02:58;;;;;;;3.20;2.60;;;21.20;55.30;;;;;;5054823;28;20599;-69
2024/02/11 08:05:24;;;;;;;2.53;1.77;;;21.20;55.30;;;;;;5055481;28;20900;-70
2024/02/11 08:07:50;;;;;;;2.87;2.57;;;21.20;55.30;;;;;;5055485;28;20402;-71
2024/02/11 08:10:16;;;;;;;4.60;2.60;;;21.20;55.30;;;;;;5054874;28;20179;-70
2024/02/11 08:12:41;;;;;;;2.70;2.03;;;21.20;55.20;;;;;;5054735;28;20976;-70
2024/02/11 08:15:12;;;;;;;2.77;2.30;;;21.20;55.30;;;;;;5053392;28;20185;-70
2024/02/11 08:17:40;;;;;;;2.27;2.07;;;21.20;55.30;;;;;;5055505;28;20175;-70
2024/02/11 08:20:07;;;;;;;3.50;2.70;;;21.20;55.30;;;;;;5054851;28;20476;-70
2024/02/11 08:22:36;;;;;;;4.47;2.00;;;21.20;55.30;;;;;;5053823;28;20465;-70
2024/02/11 08:25:08;;;;;;;2.37;2.17;;;21.20;55.30;;;;;;5055094;28;20413;-70
2024/02/11 08:27:40;;;;;;;2.20;2.00;;;21.20;55.30;;;;;;5054723;28;20413;-70
2024/02/11 08:30:10;;;;;;;3.30;2.40;;;21.20;55.30;;;;;;5055067;28;20808;-71
2024/02/11 08:32:38;;;;;;;2.70;2.40;;;21.20;55.30;;;;;;5054988;28;20441;-69
2024/02/11 08:35:04;;;;;;;3.53;2.17;;;21.20;55.30;;;;;;5054616;28;20417;-70
2024/02/11 08:37:30;;;;;;;3.37;2.57;;;21.20;55.30;;;;;;5054677;28;20424;-70
2024/02/11 08:39:55;;;;;;;2.30;2.10;;;21.20;55.30;;;;;;5053668;28;20920;-70
2024/02/11 08:42:21;;;;;;;2.40;2.03;;;21.20;55.30;;;;;;5054325;28;20207;-70
2024/02/11 08:44:46;;;;;;;2.33;1.93;;;21.20;55.30;;;;;;5054742;28;20179;-72
2024/02/11 08:47:13;;;;;;;2.80;1.93;;;21.20;55.30;;;;;;5055007;28;20213;-70
2024/02/11 08:49:40;;;;;;;2.50;2.07;;;21.30;55.30;;;;;;5052532;28;20175;-70
2024/02/11 08:52:06;;;;;;;2.37;1.97;;;21.30;55.30;;;;;;5054566;28;21250;-70
2024/02/11 08:54:34;;;;;;;3.57;2.20;;;21.30;55.30;;;;;;5054156;28;20414;-70
2024/02/11 08:57:00;;;;;;;2.70;2.10;;;21.30;55.30;;;;;;5054230;28;20421;-70
2024/02/11 08:59:30;;;;;;;2.30;1.87;;;21.30;55.30;;;;;;5053953;28;20901;-71
2024/02/11 09:01:56;;;;;;;2.30;2.07;;;21.30;55.30;;;;;;5053789;28;21117;-70
2024/02/11 09:04:23;;;;;;;2.07;1.80;;;21.30;55.30;;;;;;5054477;28;20409;-71
2024/02/11 09:06:52;;;;;;;2.37;2.13;;;21.30;55.30;;;;;;5052403;28;20420;-70
2024/02/11 09:09:25;;;;;;;2.13;1.80;;;21.30;55.30;;;;;;5053763;28;20504;-69
2024/02/11 09:11:56;;;;;;;2.47;2.20;;;21.30;55.30;;;;;;5053480;28;20437;-70
2024/02/11 09:14:27;;;;;;;2.30;2.10;;;21.30;55.30;;;;;;5053430;28;20419;-70
2024/02/11 09:16:53;;;;;;;2.70;1.87;;;21.30;55.30;;;;;;5054390;28;20397;-71
2024/02/11 09:19:18;;;;;;;3.10;2.80;;;21.30;55.30;;;;;;5053914;28;20531;-70
2024/02/11 09:21:44;;;;;;;2.30;1.90;;;21.30;55.40;;;;;;5053857;28;20938;-70
2024/02/11 09:24:10;;;;;;;2.87;2.13;;;21.30;55.30;;;;;;5053944;28;20221;-70
2024/02/11 09:26:37;;;;;;;4.43;2.33;;;21.30;55.40;;;;;;5053526;28;20175;-70
2024/02/11 09:29:04;;;;;;;3.30;2.23;;;21.30;55.30;;;;;;5053675;28;20178;-69
2024/02/11 09:31:30;;;;;;;2.63;2.30;;;21.30;55.30;;;;;;5053490;28;20429;-70
2024/02/11 09:33:55;;;;;;;3.40;2.60;;;21.30;55.60;;;;;;5052051;28;20435;-70
2024/02/11 09:36:21;;;;;;;4.63;2.47;;;21.30;55.30;;;;;;5053768;28;20233;-71
2024/02/11 09:38:47;;;;;;;2.27;1.63;;;21.30;55.30;;;;;;5053687;28;20537;-71
2024/02/11 09:41:13;;;;;;;2.43;1.93;;;21.30;55.30;;;;;;5053297;28;20293;-70
2024/02/11 09:43:39;;;;;;;2.83;2.10;;;21.30;55.30;;;;;;5053780;28;20968;-70
2024/02/11 09:46:06;;;;;;;3.90;2.07;;;21.30;55.30;;;;;;5053527;28;20775;-70
2024/02/11 09:48:34;;;;;;;2.70;1.97;;;21.30;55.30;;;;;;5053586;28;20591;-70
2024/02/11 09:51:01;;;;;;;2.90;1.93;;;21.30;55.30;;;;;;5053572;28;20429;-69
2024/02/11 09:53:27;;;;;;;2.83;2.33;;;21.30;55.30;;;;;;5053285;28;20409;-70
2024/02/11 09:55:54;;;;;;;4.30;2.37;;;21.30;55.30;;;;;;5053868;28;20448;-70
2024/02/11 09:58:20;;;;;;;2.47;1.93;;;21.30;55.30;;;;;;5053340;28;20437;-70
2024/02/11 10:00:46;;;;;;;3.00;2.00;;;21.30;55.30;;;;;;5052901;28;20406;-70
2024/02/11 10:03:16;;;;;;;2.93;1.80;;;21.30;55.30;;;;;;5053105;28;20460;-70
2024/02/11 10:05:46;;;;;;;2.20;1.73;;;21.30;55.30;;;;;;5053232;28;20159;-68
2024/02/11 10:08:19;;;;;;;2.20;1.87;;;21.30;55.30;;;;;;5053525;28;20456;-70
2024/02/11 10:10:47;;;;;;;3.43;2.40;;;21.30;55.30;;;;;;5053932;28;20473;-70
2024/02/11 10:13:19;;;;;;;2.40;2.20;;;21.30;55.30;;;;;;5052986;28;20502;-70
2024/02/11 10:15:48;;;;;;;2.50;2.30;;;21.30;55.30;;;;;;5052831;28;20393;-70
2024/02/11 10:18:18;;;;;;;2.33;1.93;;;21.40;55.40;;;;;;5052829;28;20410;-71
2024/02/11 10:20:48;;;;;;;2.50;2.07;;;21.30;55.30;;;;;;5052493;28;20520;-70
2024/02/11 10:23:17;;;;;;;2.80;2.10;;;21.40;55.40;;;;;;5052573;28;20539;-71
2024/02/11 10:25:45;;;;;;;3.53;2.43;;;21.30;55.30;;;;;;5052807;28;20406;-70
2024/02/11 10:28:11;;;;;;;1.80;1.50;;;21.30;55.30;;;;;;5052786;28;20897;-71
2024/02/11 10:30:37;;;;;;;1.90;1.70;;;21.30;55.30;;;;;;5052798;28;20437;-71
2024/02/11 10:33:02;;;;;;;2.23;1.97;;;21.40;55.40;;;;;;5052649;28;20994;-69
2024/02/11 10:35:33;;;;;;;3.07;2.00;;;21.40;55.40;;;;;;5052672;28;20262;-70
2024/02/11 10:37:59;;;;;;;3.70;2.33;;;21.40;55.40;;;;;;5050958;28;20179;-71
2024/02/11 10:40:26;;;;;;;2.27;1.83;;;21.40;55.40;;;;;;5052301;28;20409;-71
2024/02/11 10:42:52;;;;;;;2.77;1.80;;;21.40;55.40;;;;;;5051950;28;21129;-70
2024/02/11 10:45:18;;;;;;;2.57;2.20;;;21.40;55.40;;;;;;5051676;28;20409;-70
2024/02/11 10:47:43;;;;;;;2.40;1.80;;;21.40;55.40;;;;;;5052106;28;20458;-70
2024/02/11 10:50:12;;;;;;;2.23;1.77;;;21.40;55.40;;;;;;5051848;28;20544;-70
2024/02/11 10:52:49;;;;;;;2.83;1.80;;;21.40;55.40;;;;;;5051961;28;20194;-71
2024/02/11 10:55:16;;;;;;;2.17;1.97;;;21.40;55.40;;;;;;5052108;28;20520;-70
2024/02/11 10:57:49;;;;;;;2.40;2.00;;;21.40;55.40;;;;;;5051921;28;20445;-69
2024/02/11 11:00:20;;;;;;;1.70;1.57;;;21.40;55.40;;;;;;5052253;28;20437;-71
2024/02/11 11:02:52;;;;;;;2.50;2.07;;;21.40;55.50;;;;;;5051898;28;20461;-70
2024/02/11 11:05:21;;;;;;;2.03;1.70;;;21.40;55.40;;;;;;5051693;28;20402;-70
2024/02/11 11:07:50;;;;;;;2.20;1.87;;;21.40;55.40;;;;;;5050642;28;20792;-71
2024/02/11 11:10:18;;;;;;;1.83;1.73;;;21.40;55.50;;;;;;5051615;28;20943;-71
2024/02/11 11:12:54;;;;;;;2.90;2.10;;;21.40;55.40;;;;;;5052201;28;20974;-70
2024/02/11 11:15:24;;;;;;;2.03;1.80;;;21.40;55.50;;;;;;5051931;28;20760;-71
2024/02/11 11:17:51;;;;;;;2.67;1.80;;;21.40;55.50;;;;;;5051953;28;20455;-72
2024/02/11 11:20:18;;;;;;;2.00;1.77;;;21.30;55.40;;;;;;5050837;28;20434;-72
2024/02/11 11:22:50;;;;;;;2.67;1.90;;;21.40;55.50;;;;;;5052543;28;20818;-71
2024/02/11 11:25:18;;;;;;;2.30;1.67;;;21.40;55.50;;;;;;5052028;28;20393;-71
2024/02/11 11:27:43;;;;;;;1.77;1.60;;;21.40;55.40;;;;;;5051517;28;20405;-71
2024/02/11 11:30:14;;;;;;;2.07;1.87;;;21.40;55.40;;;;;;5050459;28;20420;-71
2024/02/11 11:32:45;;;;;;;2.50;1.83;;;21.40;55.40;;;;;;5050185;28;20306;-70
2024/02/11 11:35:16;;;;;;;2.83;1.73;;;21.40;55.40;;;;;;5051789;28;20401;-72
2024/02/11 11:37:43;;;;;;;2.00;1.40;;;21.40;55.40;;;;;;5051946;28;20438;-70
2024/02/11 11:40:10;;;;;;;2.60;2.27;;;21.40;55.40;;;;;;5052238;28;20409;-71
2024/02/11 11:42:35;;;;;;;2.20;2.00;;;21.40;55.40;;;;;;5051533;28;20461;-70
2024/02/11 11:45:08;;;;;;;1.90;1.63;;;21.40;55.40;;;;;;5051320;28;20416;-71
2024/02/11 11:47:37;;;;;;;2.10;1.90;;;21.40;55.40;;;;;;5051405;28;20171;-71
2024/02/11 11:50:06;;;;;;;2.17;1.60;;;21.40;55.40;;;;;;5051273;28;20436;-71
2024/02/11 11:52:35;;;;;;;2.03;1.50;;;21.40;55.40;;;;;;5051386;28;20853;-71
2024/02/11 11:55:04;;;;;;;2.20;1.70;;;21.40;55.40;;;;;;5051788;28;21103;-71
2024/02/11 11:57:31;;;;;;;2.00;1.50;;;21.40;55.40;;;;;;5053763;28;20409;-71
2024/02/11 12:00:00;;;;;;;2.13;1.80;;;21.40;55.40;;;;;;5055138;28;20459;-71
2024/02/11 12:02:30;;;;;;;1.60;1.37;;;21.40;55.40;;;;;;5054953;28;20493;-71
2024/02/11 12:04:56;;;;;;;2.53;2.33;;;21.40;55.40;;;;;;5055294;28;20778;-71
2024/02/11 12:07:25;;;;;;;2.13;1.60;;;21.40;55.40;;;;;;5055186;28;20492;-71
2024/02/11 12:09:52;;;;;;;1.80;1.57;;;21.40;55.40;;;;;;5054992;28;20229;-71
2024/02/11 12:12:18;;;;;;;2.40;1.40;;;21.40;55.40;;;;;;5055007;28;20468;-70
2024/02/11 12:14:45;;;;;;;3.73;2.00;;;21.40;55.40;;;;;;5055219;28;20414;-71
2024/02/11 12:17:11;;;;;;;1.70;1.60;;;21.40;55.40;;;;;;5055212;28;20393;-69
2024/02/11 12:19:39;;;;;;;2.33;1.77;;;21.40;55.40;;;;;;5054872;28;20448;-70
2024/02/11 12:22:06;;;;;;;1.57;1.47;;;21.40;55.40;;;;;;5054985;28;20227;-71
2024/02/11 12:24:38;;;;;;;1.80;1.50;;;21.40;55.40;;;;;;5055009;28;20406;-71
2024/02/11 12:27:05;;;;;;;2.43;1.60;;;21.40;55.40;;;;;;5054670;28;20478;-71
2024/02/11 12:29:31;;;;;;;2.83;1.70;;;21.40;55.40;;;;;;5054661;28;20409;-70
2024/02/11 12:31:57;;;;;;;1.60;1.50;;;21.40;55.40;;;;;;5054730;28;21068;-71
2024/02/11 12:34:29;;;;;;;2.97;1.67;;;21.40;55.40;;;;;;5054934;28;20409;-70
2024/02/11 12:37:03;;;;;;;2.50;1.70;;;21.40;55.40;;;;;;5054715;28;20475;-71
2024/02/11 12:39:30;;;;;;;2.00;1.60;;;21.40;55.40;;;;;;5054302;28;20412;-71
2024/02/11 12:41:57;;;;;;;2.00;1.77;;;21.40;55.40;;;;;;5054450;28;20464;-70
2024/02/11 12:44:23;;;;;;;1.63;1.40;;;21.40;55.40;;;;;;5054752;28;20397;-71
2024/02/11 12:46:49;;;;;;;1.87;1.60;;;21.40;55.50;;;;;;5054571;28;20409;-71